createdAt,value
2019-03-10T00:02:12.841Z,6.70
2019-03-10T00:04:41.922Z,6.70
2019-03-10T00:07:10.978Z,6.60
2019-03-10T00:09:40.055Z,6.60
2019-03-10T00:12:09.094Z,6.60
2019-03-10T00:14:38.133Z,6.60
2019-03-10T00:17:07.111Z,6.60
2019-03-10T00:19:36.827Z,6.60
2019-03-10T00:22:06.061Z,6.60
2019-03-10T00:24:35.037Z,6.50
2019-03-10T00:27:04.041Z,6.50
2019-03-10T00:29:33.095Z,6.50
2019-03-10T00:32:02.149Z,6.50
2019-03-10T00:34:31.122Z,6.50
2019-03-10T00:37:00.154Z,6.50
2019-03-10T00:40:04.431Z,6.50
2019-03-10T00:42:59.290Z,6.50
2019-03-10T00:46:12.963Z,6.50
2019-03-10T00:49:06.629Z,6.50
2019-03-10T00:52:11.165Z,6.50
2019-03-10T00:54:40.162Z,6.50
2019-03-10T00:57:09.225Z,6.50
2019-03-10T00:59:38.273Z,6.50
2019-03-10T01:02:07.259Z,6.50
2019-03-10T01:04:36.262Z,6.50
2019-03-10T01:07:05.362Z,6.50
2019-03-10T01:09:34.365Z,6.50
2019-03-10T01:12:03.473Z,6.60
2019-03-10T01:14:32.421Z,6.50
2019-03-10T01:17:01.473Z,6.60
2019-03-10T01:19:30.514Z,6.60
2019-03-10T01:21:59.901Z,6.60
2019-03-10T01:24:29.033Z,6.50
2019-03-10T01:26:58.095Z,6.50
2019-03-10T01:29:27.142Z,6.60
2019-03-10T01:32:23.554Z,6.50
2019-03-10T01:35:25.619Z,6.60
2019-03-10T01:37:54.690Z,6.60
2019-03-10T01:40:23.735Z,6.60
2019-03-10T01:42:52.711Z,6.60
2019-03-10T01:45:21.765Z,6.60
2019-03-10T01:47:50.829Z,6.60
2019-03-10T01:50:19.794Z,6.60
2019-03-10T01:52:48.865Z,6.60
2019-03-10T01:55:17.909Z,6.60
2019-03-10T01:57:46.993Z,6.60
2019-03-10T02:00:16.591Z,6.60
2019-03-10T02:02:45.541Z,6.60
2019-03-10T02:05:14.615Z,6.60
2019-03-10T02:07:43.665Z,6.60
2019-03-10T02:10:12.714Z,6.60
2019-03-10T02:12:41.799Z,6.60
2019-03-10T02:15:12.851Z,6.60
2019-03-10T02:17:41.830Z,6.60
2019-03-10T02:20:13.052Z,6.60
2019-03-10T02:22:42.076Z,6.60
2019-03-10T02:25:11.141Z,6.60
2019-03-10T02:27:40.150Z,6.60
2019-03-10T02:30:11.935Z,6.60
2019-03-10T02:32:40.978Z,6.60
2019-03-10T02:35:10.038Z,6.60
2019-03-10T02:37:39.102Z,6.60
2019-03-10T02:40:08.716Z,6.60
2019-03-10T02:42:37.779Z,6.60
2019-03-10T02:45:06.996Z,6.60
2019-03-10T02:47:35.982Z,6.60
2019-03-10T02:50:05.963Z,6.70
2019-03-10T02:52:35.010Z,6.70
2019-03-10T02:55:04.068Z,6.70
2019-03-10T02:57:33.142Z,6.70
2019-03-10T03:00:02.235Z,6.70
2019-03-10T03:02:31.301Z,6.80
2019-03-10T03:05:00.654Z,6.80
2019-03-10T03:07:29.783Z,6.80
2019-03-10T03:09:58.837Z,6.80
2019-03-10T03:12:27.935Z,6.80
2019-03-10T03:14:56.993Z,6.80
2019-03-10T03:17:26.200Z,6.80
2019-03-10T03:19:55.158Z,6.80
2019-03-10T03:22:24.238Z,6.80
2019-03-10T03:24:53.330Z,6.80
2019-03-10T03:27:22.367Z,6.80
2019-03-10T03:29:51.418Z,6.70
2019-03-10T03:32:20.467Z,6.70
2019-03-10T03:34:49.422Z,6.70
2019-03-10T03:37:20.764Z,6.70
2019-03-10T03:39:51.736Z,6.80
2019-03-10T03:42:20.803Z,6.70
2019-03-10T03:44:49.855Z,6.70
2019-03-10T03:47:19.078Z,6.70
2019-03-10T03:49:48.126Z,6.70
2019-03-10T03:52:17.179Z,6.70
2019-03-10T03:54:46.286Z,6.70
2019-03-10T03:57:15.333Z,6.70
2019-03-10T03:59:44.323Z,6.70
2019-03-10T04:02:35.685Z,6.70
2019-03-10T04:05:04.792Z,6.70
2019-03-10T04:07:33.933Z,6.70
2019-03-10T04:10:03.062Z,6.60
2019-03-10T04:12:32.099Z,6.60
2019-03-10T04:15:01.211Z,6.70
2019-03-10T04:17:30.211Z,6.60
2019-03-10T04:19:59.175Z,6.60
2019-03-10T04:22:28.142Z,6.60
2019-03-10T04:24:57.203Z,6.60
2019-03-10T04:27:26.254Z,6.60
2019-03-10T04:29:55.316Z,6.60
2019-03-10T04:32:24.414Z,6.60
2019-03-10T04:34:53.449Z,6.60
2019-03-10T04:37:22.405Z,6.60
2019-03-10T04:39:51.410Z,6.60
2019-03-10T04:42:20.466Z,6.60
2019-03-10T04:44:49.445Z,6.60
2019-03-10T04:47:18.456Z,6.60
2019-03-10T04:49:47.494Z,6.60
2019-03-10T04:52:16.612Z,6.60
2019-03-10T04:55:22.772Z,6.60
2019-03-10T04:58:00.357Z,6.60
2019-03-10T05:00:30.086Z,6.60
2019-03-10T05:02:59.134Z,6.60
2019-03-10T05:05:28.226Z,6.60
2019-03-10T05:07:57.259Z,6.60
2019-03-10T05:10:26.304Z,6.50
2019-03-10T05:12:55.422Z,6.50
2019-03-10T05:15:24.454Z,6.50
2019-03-10T05:17:53.491Z,6.50
2019-03-10T05:20:22.527Z,6.50
2019-03-10T05:22:51.572Z,6.50
2019-03-10T05:25:21.357Z,6.50
2019-03-10T05:27:50.400Z,6.50
2019-03-10T05:30:19.490Z,6.50
2019-03-10T05:32:48.542Z,6.40
2019-03-10T05:35:17.585Z,6.40
2019-03-10T05:37:46.721Z,6.40
2019-03-10T05:40:15.785Z,6.40
2019-03-10T05:42:44.835Z,6.40
2019-03-10T05:45:13.903Z,6.40
2019-03-10T05:47:42.957Z,6.40
2019-03-10T05:50:11.999Z,6.40
2019-03-10T05:52:41.051Z,6.40
2019-03-10T05:55:10.127Z,6.40
2019-03-10T05:57:39.162Z,6.40
2019-03-10T06:00:08.268Z,6.30
2019-03-10T06:02:37.315Z,6.30
2019-03-10T06:05:06.398Z,6.30
2019-03-10T06:07:35.446Z,6.30
2019-03-10T06:10:04.687Z,6.40
2019-03-10T06:12:33.769Z,6.30
2019-03-10T06:15:02.797Z,6.40
2019-03-10T06:17:31.767Z,6.30
2019-03-10T06:20:00.746Z,6.30
2019-03-10T06:22:29.798Z,6.30
2019-03-10T06:24:58.869Z,6.30
2019-03-10T06:27:27.913Z,6.30
2019-03-10T06:29:56.967Z,6.20
2019-03-10T06:32:25.948Z,6.20
2019-03-10T06:42:09.650Z,6.20
2019-03-10T06:44:38.711Z,6.20
2019-03-10T06:47:07.778Z,6.20
2019-03-10T06:49:36.813Z,6.20
2019-03-10T06:52:06.483Z,6.20
2019-03-10T06:54:35.524Z,6.20
2019-03-10T06:57:04.595Z,6.20
2019-03-10T06:59:33.942Z,6.20
2019-03-10T07:02:02.979Z,6.20
2019-03-10T07:04:32.043Z,6.10
2019-03-10T07:07:01.076Z,6.10
2019-03-10T07:09:30.109Z,6.20
2019-03-10T07:11:59.163Z,6.20
2019-03-10T07:14:28.186Z,6.20
2019-03-10T07:16:57.222Z,6.20
2019-03-10T07:19:26.281Z,6.20
2019-03-10T07:21:55.226Z,6.20
2019-03-10T07:24:24.282Z,6.20
2019-03-10T07:26:53.349Z,6.20
2019-03-10T07:29:26.058Z,6.20
2019-03-10T07:32:12.758Z,6.20
2019-03-10T07:35:00.768Z,6.20
2019-03-10T07:37:41.542Z,6.20
2019-03-10T07:40:29.555Z,6.20
2019-03-10T07:43:23.245Z,6.20
2019-03-10T07:45:58.637Z,6.30
2019-03-10T07:48:41.324Z,6.30
2019-03-10T07:51:18.994Z,6.30
2019-03-10T07:54:06.260Z,6.30
2019-03-10T07:56:57.486Z,6.30
2019-03-10T07:59:51.656Z,6.30
2019-03-10T08:02:40.953Z,6.30
2019-03-10T08:05:18.611Z,6.40
2019-03-10T08:07:55.899Z,6.40
2019-03-10T08:10:32.261Z,6.40
2019-03-10T08:13:29.157Z,6.40
2019-03-10T08:16:17.179Z,6.40
2019-03-10T08:18:55.573Z,6.50
2019-03-10T08:21:42.223Z,6.50
2019-03-10T08:24:20.135Z,6.50
2019-03-10T08:26:58.979Z,6.50
2019-03-10T08:29:52.827Z,6.50
2019-03-10T08:32:42.898Z,6.50
2019-03-10T08:35:17.314Z,6.50
2019-03-10T08:38:03.525Z,6.40
2019-03-10T08:41:00.446Z,6.40
2019-03-10T08:43:39.127Z,6.40
2019-03-10T08:46:25.649Z,6.40
2019-03-10T08:49:16.562Z,6.50
2019-03-10T08:51:56.247Z,6.50
2019-03-10T08:54:45.837Z,6.50
2019-03-10T08:57:44.573Z,6.50
2019-03-10T09:00:35.781Z,6.50
2019-03-10T09:03:22.070Z,6.60
2019-03-10T09:06:10.067Z,6.60
2019-03-10T09:08:56.491Z,6.70
2019-03-10T09:11:53.525Z,6.80
2019-03-10T09:14:50.420Z,6.90
2019-03-10T09:17:49.579Z,6.90
2019-03-10T09:20:37.643Z,6.90
2019-03-10T09:23:25.698Z,6.80
2019-03-10T09:26:28.931Z,6.80
2019-03-10T09:29:10.952Z,6.70
2019-03-10T09:31:48.411Z,6.70
2019-03-10T09:34:23.357Z,6.70
2019-03-10T09:37:09.806Z,6.70
2019-03-10T09:39:59.205Z,6.70
2019-03-10T09:42:47.199Z,6.80
2019-03-10T09:45:33.635Z,6.80
2019-03-10T09:48:24.536Z,6.80
2019-03-10T09:51:11.042Z,6.80
2019-03-10T09:53:58.946Z,6.80
2019-03-10T09:56:50.034Z,6.80
2019-03-10T09:59:44.095Z,6.80
2019-03-10T10:02:22.775Z,6.90
2019-03-10T10:09:22.397Z,7.00
2019-03-10T10:12:16.258Z,6.90
2019-03-10T10:15:06.801Z,6.80
2019-03-10T10:17:51.673Z,6.80
2019-03-10T10:20:27.088Z,6.80
2019-03-10T10:23:26.838Z,6.80
2019-03-10T10:26:13.142Z,6.80
2019-03-10T10:29:06.818Z,6.90
2019-03-10T10:31:54.939Z,6.90
2019-03-10T10:34:48.709Z,6.90
2019-03-10T10:37:25.338Z,7.00
2019-03-10T10:40:11.411Z,7.00
2019-03-10T10:43:14.202Z,7.10
2019-03-10T10:45:54.506Z,7.20
2019-03-10T10:48:35.711Z,7.40
2019-03-10T10:51:26.400Z,7.60
2019-03-10T10:54:13.100Z,7.70
2019-03-10T10:57:01.094Z,7.80
2019-03-10T10:59:37.197Z,7.90
2019-03-10T11:02:15.362Z,7.90
2019-03-10T11:05:19.759Z,8.00
2019-03-10T11:07:54.022Z,8.20
2019-03-10T11:10:48.789Z,8.20
2019-03-10T11:13:36.784Z,8.30
2019-03-10T11:16:23.262Z,8.40
2019-03-10T11:19:09.922Z,8.40
2019-03-10T11:22:00.965Z,8.30
2019-03-10T11:24:55.042Z,8.30
2019-03-10T11:27:48.633Z,8.30
2019-03-10T11:30:35.200Z,8.30
2019-03-10T11:33:28.966Z,8.40
2019-03-10T11:36:15.231Z,8.50
2019-03-10T11:38:53.897Z,8.60
2019-03-10T11:41:33.865Z,8.80
2019-03-10T11:44:15.966Z,9.00
2019-03-10T11:46:51.316Z,9.10
2019-03-10T11:49:29.022Z,9.20
2019-03-10T11:52:03.042Z,9.40
2019-03-10T11:54:38.948Z,9.50
2019-03-10T11:57:32.574Z,9.60
2019-03-10T12:00:13.690Z,9.70
2019-03-10T12:02:59.859Z,9.70
2019-03-10T12:05:42.237Z,9.70
2019-03-10T12:08:45.145Z,9.70
2019-03-10T12:11:14.248Z,9.70
2019-03-10T12:13:43.207Z,9.70
2019-03-10T12:16:12.207Z,9.60
2019-03-10T12:18:41.205Z,9.60
2019-03-10T12:21:10.274Z,9.60
2019-03-10T12:23:39.310Z,9.60
2019-03-10T12:26:08.390Z,9.60
2019-03-10T12:28:37.410Z,9.60
2019-03-10T12:31:06.538Z,9.60
2019-03-10T12:33:35.604Z,9.60
2019-03-10T12:36:04.639Z,9.50
2019-03-10T12:38:33.671Z,9.50
2019-03-10T12:41:02.757Z,9.50
2019-03-10T12:43:31.814Z,9.50
2019-03-10T12:46:00.863Z,9.50
2019-03-10T12:48:29.911Z,9.50
2019-03-10T12:50:58.931Z,9.30
2019-03-10T12:53:28.018Z,9.20
2019-03-10T12:55:56.996Z,9.00
2019-03-10T12:58:26.030Z,9.00
2019-03-10T13:01:05.332Z,8.90
2019-03-10T13:03:25.789Z,8.90
2019-03-10T13:05:54.854Z,8.70
2019-03-10T13:08:23.850Z,8.70
2019-03-10T13:10:52.904Z,8.60
2019-03-10T13:13:21.947Z,8.50
2019-03-10T13:15:51.033Z,8.40
2019-03-10T13:18:20.038Z,8.30
2019-03-10T13:20:49.097Z,8.30
2019-03-10T13:23:18.167Z,8.30
2019-03-10T13:25:47.219Z,8.20
2019-03-10T13:28:16.304Z,8.20
2019-03-10T13:30:45.350Z,8.20
2019-03-10T13:33:14.449Z,8.20
2019-03-10T13:35:43.430Z,8.20
2019-03-10T13:38:12.489Z,8.20
2019-03-10T13:40:44.954Z,8.30
2019-03-10T13:43:14.003Z,8.30
2019-03-10T13:45:43.235Z,8.30
2019-03-10T13:48:12.199Z,8.40
2019-03-10T13:50:41.514Z,8.50
2019-03-10T13:53:10.567Z,8.70
2019-03-10T13:55:39.619Z,8.90
2019-03-10T13:58:08.722Z,9.00
2019-03-10T14:00:38.018Z,9.10
2019-03-10T14:03:07.071Z,9.30
2019-03-10T14:05:36.138Z,9.30
2019-03-10T14:08:05.262Z,9.40
2019-03-10T14:10:34.381Z,9.40
2019-03-10T14:13:03.347Z,9.40
2019-03-10T14:15:32.390Z,9.40
2019-03-10T14:18:01.377Z,9.40
2019-03-10T14:20:30.442Z,9.30
2019-03-10T14:22:59.475Z,9.10
2019-03-10T14:25:28.519Z,8.80
2019-03-10T14:27:57.511Z,8.20
2019-03-10T14:30:26.622Z,7.60
2019-03-10T14:32:55.658Z,7.40
2019-03-10T14:35:24.970Z,7.10
2019-03-10T14:37:54.042Z,7.00
2019-03-10T14:40:23.018Z,6.80
2019-03-10T14:42:52.654Z,6.60
2019-03-10T14:45:21.602Z,6.50
2019-03-10T14:47:50.626Z,6.50
2019-03-10T14:50:19.994Z,6.30
2019-03-10T14:52:49.113Z,6.30
2019-03-10T14:55:18.108Z,6.30
2019-03-10T14:57:47.230Z,6.20
2019-03-10T15:00:18.751Z,6.10
2019-03-10T15:02:47.786Z,6.10
2019-03-10T15:05:16.785Z,6.00
2019-03-10T15:07:45.817Z,5.90
2019-03-10T15:10:14.998Z,5.80
2019-03-10T15:12:44.026Z,5.80
2019-03-10T15:15:21.827Z,5.70
2019-03-10T15:17:43.799Z,5.50
2019-03-10T15:20:12.892Z,5.50
2019-03-10T15:22:41.941Z,5.60
2019-03-10T15:25:11.567Z,5.60
2019-03-10T15:27:40.603Z,5.60
2019-03-10T15:30:12.753Z,5.50
2019-03-10T15:32:41.835Z,5.50
2019-03-10T15:35:10.888Z,5.50
2019-03-10T15:37:39.929Z,5.40
2019-03-10T15:40:09.814Z,5.40
2019-03-10T15:42:38.856Z,5.40
2019-03-10T15:45:10.398Z,5.50
2019-03-10T15:47:39.480Z,5.50
2019-03-10T15:50:12.042Z,5.50
2019-03-10T15:52:41.071Z,5.50
2019-03-10T15:55:10.150Z,5.50
2019-03-10T15:57:49.378Z,5.50
2019-03-10T16:00:13.007Z,5.50
2019-03-10T16:02:42.034Z,5.50
2019-03-10T16:05:11.153Z,5.50
2019-03-10T16:07:40.169Z,5.50
2019-03-10T16:10:09.758Z,5.50
2019-03-10T16:12:38.707Z,5.50
2019-03-10T16:15:09.755Z,5.50
2019-03-10T16:17:38.800Z,5.50
2019-03-10T16:20:08.794Z,5.50
2019-03-10T16:22:37.783Z,5.50
2019-03-10T16:25:07.491Z,5.50
2019-03-10T16:27:36.542Z,5.40
2019-03-10T16:30:06.243Z,5.40
2019-03-10T16:32:35.273Z,5.40
2019-03-10T16:35:04.897Z,5.40
2019-03-10T16:37:33.958Z,5.40
2019-03-10T16:40:03.066Z,5.30
2019-03-10T16:42:32.089Z,5.30
2019-03-10T16:45:01.067Z,5.30
2019-03-10T16:47:30.278Z,5.30
2019-03-10T16:49:59.322Z,5.20
2019-03-10T16:52:28.404Z,5.20
2019-03-10T16:54:57.648Z,5.20
2019-03-10T16:57:26.683Z,5.20
2019-03-10T16:59:55.780Z,5.20
2019-03-10T17:02:24.906Z,5.10
2019-03-10T17:04:53.945Z,5.10
2019-03-10T17:07:23.014Z,5.10
2019-03-10T17:09:52.105Z,5.10
2019-03-10T17:12:21.224Z,5.10
2019-03-10T17:14:50.316Z,5.10
2019-03-10T17:17:19.387Z,5.10
2019-03-10T17:19:48.441Z,5.00
2019-03-10T17:22:17.476Z,4.90
2019-03-10T17:24:46.538Z,4.80
2019-03-10T17:27:15.586Z,4.70
2019-03-10T17:29:44.564Z,4.60
2019-03-10T17:32:13.657Z,4.50
2019-03-10T17:34:42.699Z,4.40
2019-03-10T17:37:11.827Z,4.20
2019-03-10T17:39:40.910Z,4.10
2019-03-10T17:42:09.885Z,4.10
2019-03-10T17:44:41.533Z,4.00
2019-03-10T17:47:09.749Z,4.00
2019-03-10T17:49:38.734Z,4.00
2019-03-10T17:52:14.306Z,4.00
2019-03-10T17:54:38.562Z,4.00
2019-03-10T17:57:07.638Z,4.00
2019-03-10T17:59:36.602Z,4.00
2019-03-10T18:02:09.345Z,4.00
2019-03-10T18:04:36.443Z,4.00
2019-03-10T18:07:05.414Z,3.90
2019-03-10T18:09:34.473Z,3.90
2019-03-10T18:12:03.454Z,3.90
2019-03-10T18:14:32.528Z,3.90
2019-03-10T18:17:01.622Z,3.80
2019-03-10T18:19:30.678Z,3.80
2019-03-10T18:21:59.642Z,3.80
2019-03-10T18:24:28.631Z,3.70
2019-03-10T18:26:57.703Z,3.70
2019-03-10T18:29:26.791Z,3.70
2019-03-10T18:31:55.872Z,3.70
2019-03-10T18:34:24.938Z,3.60
2019-03-10T18:36:53.999Z,3.60
2019-03-10T18:39:22.975Z,3.60
2019-03-10T18:41:52.011Z,3.60
2019-03-10T18:44:23.396Z,3.60
2019-03-10T18:46:51.860Z,3.60
2019-03-10T18:49:20.930Z,3.60
2019-03-10T18:51:49.923Z,3.60
2019-03-10T18:54:19.059Z,3.60
2019-03-10T18:56:48.015Z,3.60
2019-03-10T18:59:17.092Z,3.70
2019-03-10T19:01:46.167Z,3.80
2019-03-10T19:04:15.131Z,3.80
2019-03-10T19:06:49.803Z,3.90
2019-03-10T19:09:18.900Z,3.90
2019-03-10T19:11:47.937Z,4.00
2019-03-10T19:14:17.092Z,4.00
2019-03-10T19:16:46.173Z,4.00
2019-03-10T19:19:15.121Z,4.00
2019-03-10T19:21:44.129Z,4.00
2019-03-10T19:24:13.183Z,4.00
2019-03-10T19:26:42.206Z,4.00
2019-03-10T19:29:11.422Z,3.90
2019-03-10T19:31:40.687Z,3.90
2019-03-10T19:34:09.777Z,3.80
2019-03-10T19:36:39.072Z,3.80
2019-03-10T19:39:08.253Z,3.80
2019-03-10T19:41:39.566Z,3.70
2019-03-10T19:44:08.729Z,3.70
2019-03-10T19:46:37.785Z,3.70
2019-03-10T19:49:06.770Z,3.60
2019-03-10T19:51:35.802Z,3.60
2019-03-10T19:54:04.879Z,3.50
2019-03-10T19:56:35.311Z,3.50
2019-03-10T19:59:04.421Z,3.50
2019-03-10T20:01:33.482Z,3.50
2019-03-10T20:04:02.521Z,3.40
2019-03-10T20:06:31.486Z,3.40
2019-03-10T20:09:01.568Z,3.40
2019-03-10T20:11:30.913Z,3.50
2019-03-10T20:14:00.002Z,3.50
2019-03-10T20:16:29.333Z,3.50
2019-03-10T20:18:58.382Z,3.50
2019-03-10T20:21:27.431Z,3.50
2019-03-10T20:23:58.979Z,3.50
2019-03-10T20:26:28.025Z,3.50
2019-03-10T20:28:57.074Z,3.40
2019-03-10T20:31:26.125Z,3.40
2019-03-10T20:33:55.106Z,3.40
2019-03-10T20:36:24.089Z,3.40
2019-03-10T20:38:53.162Z,3.50
2019-03-10T20:41:22.141Z,3.50
2019-03-10T20:43:51.120Z,3.50
2019-03-10T20:46:20.101Z,3.50
2019-03-10T20:48:49.086Z,3.50
2019-03-10T20:51:18.167Z,3.50
2019-03-10T20:57:18.866Z,3.50
2019-03-10T20:59:47.906Z,3.40
2019-03-10T21:02:16.974Z,3.40
2019-03-10T21:04:45.977Z,3.40
2019-03-10T21:07:15.055Z,3.40
2019-03-10T21:09:44.026Z,3.40
2019-03-10T21:12:13.008Z,3.40
2019-03-10T21:14:42.028Z,3.40
2019-03-10T21:17:11.065Z,3.40
2019-03-10T21:19:40.103Z,3.40
2019-03-10T21:22:09.179Z,3.40
2019-03-10T21:24:38.149Z,3.40
2019-03-10T21:27:07.208Z,3.40
2019-03-10T21:29:36.178Z,3.40
2019-03-10T21:32:05.158Z,3.50
2019-03-10T21:34:34.250Z,3.50
2019-03-10T21:37:03.237Z,3.50
2019-03-10T21:39:34.855Z,3.50
2019-03-10T21:42:03.095Z,3.50
2019-03-10T21:44:32.133Z,3.50
2019-03-10T21:47:01.270Z,3.50
2019-03-10T21:49:30.348Z,3.40
2019-03-10T21:51:59.326Z,3.40
2019-03-10T21:54:28.359Z,3.40
2019-03-10T21:56:57.342Z,3.40
2019-03-10T21:59:26.370Z,3.40
2019-03-10T22:01:55.405Z,3.40
2019-03-10T22:04:24.507Z,3.40
2019-03-10T22:06:53.542Z,3.40
2019-03-10T22:09:22.500Z,3.40
2019-03-10T22:11:51.579Z,3.30
2019-03-10T22:14:20.682Z,3.30
2019-03-10T22:16:49.694Z,3.30
2019-03-10T22:19:22.612Z,3.30
2019-03-10T22:21:49.406Z,3.30
2019-03-10T22:24:18.490Z,3.30
2019-03-10T22:26:47.462Z,3.30
2019-03-10T22:29:16.498Z,3.40
2019-03-10T22:31:45.574Z,3.40
2019-03-10T22:34:14.587Z,3.50
2019-03-10T22:36:43.554Z,3.50
2019-03-10T22:39:12.533Z,3.50
2019-03-10T22:41:41.493Z,3.50
2019-03-10T22:44:10.529Z,3.50
2019-03-10T22:46:39.579Z,3.60
2019-03-10T22:49:08.556Z,3.70
2019-03-10T22:51:37.586Z,3.80
2019-03-10T22:54:07.842Z,3.90
2019-03-10T22:56:36.851Z,3.90
2019-03-10T22:59:05.962Z,4.00
2019-03-10T23:01:35.034Z,4.00
2019-03-10T23:04:04.079Z,4.00
2019-03-10T23:06:33.019Z,4.00
2019-03-10T23:09:02.020Z,4.10
2019-03-10T23:11:31.058Z,4.10
2019-03-10T23:14:00.029Z,4.00
2019-03-10T23:16:29.116Z,4.10
2019-03-10T23:18:58.199Z,4.10
2019-03-10T23:21:27.159Z,4.10
2019-03-10T23:23:56.149Z,4.20
2019-03-10T23:26:25.250Z,4.30
2019-03-10T23:28:54.211Z,4.40
2019-03-10T23:31:23.298Z,4.50
2019-03-10T23:33:52.282Z,4.50
2019-03-10T23:36:21.331Z,4.50
2019-03-10T23:38:50.390Z,4.40
2019-03-10T23:41:19.346Z,4.50
2019-03-10T23:43:48.310Z,4.40
2019-03-10T23:46:17.369Z,4.50
2019-03-10T23:48:46.462Z,4.50
2019-03-10T23:51:15.439Z,4.50
2019-03-10T23:53:44.431Z,4.60
2019-03-10T23:56:13.532Z,4.60
2019-03-10T23:58:42.563Z,4.50
